sensor_id;sensor_type;location;lat;lon;timestamp;P1;durP1;ratioP1;P2;durP2;ratioP2
17361;SDS011;8798;51.938;4.348;2024-02-26T00:01:37;3.63;;;2.30;;
17361;SDS011;8798;51.938;4.348;2024-02-26T00:04:05;4.07;;;2.13;;
17361;SDS011;8798;51.938;4.348;2024-02-26T00:06:33;4.30;;;2.00;;
17361;SDS011;8798;51.938;4.348;2024-02-26T00:09:01;3.70;;;2.10;;
17361;SDS011;8798;51.938;4.348;2024-02-26T00:11:34;5.03;;;2.47;;
17361;SDS011;8798;51.938;4.348;2024-02-26T00:14:03;3.60;;;2.20;;
17361;SDS011;8798;51.938;4.348;2024-02-26T00:16:31;2.80;;;1.97;;
17361;SDS011;8798;51.938;4.348;2024-02-26T00:18:59;2.83;;;1.90;;
17361;SDS011;8798;51.938;4.348;2024-02-26T00:21:27;3.10;;;2.03;;
17361;SDS011;8798;51.938;4.348;2024-02-26T00:23:55;2.93;;;2.00;;
17361;SDS011;8798;51.938;4.348;2024-02-26T00:26:23;3.80;;;2.00;;
17361;SDS011;8798;51.938;4.348;2024-02-26T00:28:52;4.07;;;2.20;;
17361;SDS011;8798;51.938;4.348;2024-02-26T00:31:20;3.00;;;2.23;;
17361;SDS011;8798;51.938;4.348;2024-02-26T00:33:48;3.57;;;2.07;;
17361;SDS011;8798;51.938;4.348;2024-02-26T00:36:17;3.23;;;2.30;;
17361;SDS011;8798;51.938;4.348;2024-02-26T00:38:45;3.20;;;1.97;;
17361;SDS011;8798;51.938;4.348;2024-02-26T00:41:17;3.80;;;2.00;;
17361;SDS011;8798;51.938;4.348;2024-02-26T00:43:45;3.50;;;2.20;;
17361;SDS011;8798;51.938;4.348;2024-02-26T00:46:15;3.90;;;1.97;;
17361;SDS011;8798;51.938;4.348;2024-02-26T00:48:43;2.60;;;2.10;;
17361;SDS011;8798;51.938;4.348;2024-02-26T00:51:11;3.17;;;2.17;;
17361;SDS011;8798;51.938;4.348;2024-02-26T00:53:39;2.47;;;1.97;;
17361;SDS011;8798;51.938;4.348;2024-02-26T00:56:07;3.80;;;2.03;;
17361;SDS011;8798;51.938;4.348;2024-02-26T00:58:35;4.70;;;2.20;;
17361;SDS011;8798;51.938;4.348;2024-02-26T01:01:03;2.17;;;1.83;;
17361;SDS011;8798;51.938;4.348;2024-02-26T01:03:33;2.40;;;1.90;;
17361;SDS011;8798;51.938;4.348;2024-02-26T01:06:01;3.50;;;2.03;;
17361;SDS011;8798;51.938;4.348;2024-02-26T01:08:29;2.70;;;2.00;;
17361;SDS011;8798;51.938;4.348;2024-02-26T01:10:58;2.87;;;1.80;;
17361;SDS011;8798;51.938;4.348;2024-02-26T01:13:26;4.63;;;2.13;;
17361;SDS011;8798;51.938;4.348;2024-02-26T01:15:54;2.70;;;2.00;;
17361;SDS011;8798;51.938;4.348;2024-02-26T01:18:22;3.57;;;2.07;;
17361;SDS011;8798;51.938;4.348;2024-02-26T01:20:51;3.57;;;2.00;;
17361;SDS011;8798;51.938;4.348;2024-02-26T01:23:21;2.97;;;2.10;;
17361;SDS011;8798;51.938;4.348;2024-02-26T01:25:49;2.20;;;1.70;;
17361;SDS011;8798;51.938;4.348;2024-02-26T01:28:17;2.37;;;1.97;;
17361;SDS011;8798;51.938;4.348;2024-02-26T01:30:45;3.90;;;2.10;;
17361;SDS011;8798;51.938;4.348;2024-02-26T01:33:13;3.87;;;2.10;;
17361;SDS011;8798;51.938;4.348;2024-02-26T01:35:41;2.90;;;2.10;;
17361;SDS011;8798;51.938;4.348;2024-02-26T01:38:10;2.60;;;2.10;;
17361;SDS011;8798;51.938;4.348;2024-02-26T01:40:38;3.17;;;2.20;;
17361;SDS011;8798;51.938;4.348;2024-02-26T01:43:06;2.97;;;2.10;;
17361;SDS011;8798;51.938;4.348;2024-02-26T01:45:34;3.57;;;2.30;;
17361;SDS011;8798;51.938;4.348;2024-02-26T01:48:02;3.83;;;2.30;;
17361;SDS011;8798;51.938;4.348;2024-02-26T01:50:30;3.93;;;2.40;;
17361;SDS011;8798;51.938;4.348;2024-02-26T01:53:00;2.77;;;1.90;;
17361;SDS011;8798;51.938;4.348;2024-02-26T01:55:31;4.00;;;2.33;;
17361;SDS011;8798;51.938;4.348;2024-02-26T01:57:59;2.40;;;2.20;;
17361;SDS011;8798;51.938;4.348;2024-02-26T02:00:27;2.67;;;2.00;;
17361;SDS011;8798;51.938;4.348;2024-02-26T02:02:55;2.93;;;2.33;;
17361;SDS011;8798;51.938;4.348;2024-02-26T02:05:23;3.00;;;2.20;;
17361;SDS011;8798;51.938;4.348;2024-02-26T02:07:53;3.53;;;2.40;;
17361;SDS011;8798;51.938;4.348;2024-02-26T02:10:22;3.63;;;2.13;;
17361;SDS011;8798;51.938;4.348;2024-02-26T02:12:53;2.90;;;2.17;;
17361;SDS011;8798;51.938;4.348;2024-02-26T02:15:21;3.30;;;2.33;;
17361;SDS011;8798;51.938;4.348;2024-02-26T02:17:49;3.70;;;2.50;;
17361;SDS011;8798;51.938;4.348;2024-02-26T02:20:18;4.30;;;2.70;;
17361;SDS011;8798;51.938;4.348;2024-02-26T02:22:47;3.93;;;2.60;;
17361;SDS011;8798;51.938;4.348;2024-02-26T02:25:15;3.93;;;2.63;;
17361;SDS011;8798;51.938;4.348;2024-02-26T02:27:43;4.43;;;2.77;;
17361;SDS011;8798;51.938;4.348;2024-02-26T02:30:12;5.37;;;2.80;;
17361;SDS011;8798;51.938;4.348;2024-02-26T02:32:42;4.20;;;2.60;;
17361;SDS011;8798;51.938;4.348;2024-02-26T02:35:10;4.00;;;2.47;;
17361;SDS011;8798;51.938;4.348;2024-02-26T02:37:38;6.43;;;2.93;;
17361;SDS011;8798;51.938;4.348;2024-02-26T02:40:08;8.30;;;3.03;;
17361;SDS011;8798;51.938;4.348;2024-02-26T02:42:36;4.30;;;2.60;;
17361;SDS011;8798;51.938;4.348;2024-02-26T02:45:04;3.43;;;2.80;;
17361;SDS011;8798;51.938;4.348;2024-02-26T02:47:35;5.13;;;2.90;;
17361;SDS011;8798;51.938;4.348;2024-02-26T02:50:03;3.93;;;2.77;;
17361;SDS011;8798;51.938;4.348;2024-02-26T02:52:32;7.23;;;3.17;;
17361;SDS011;8798;51.938;4.348;2024-02-26T02:55:00;4.07;;;3.23;;
17361;SDS011;8798;51.938;4.348;2024-02-26T02:57:30;4.23;;;2.60;;
17361;SDS011;8798;51.938;4.348;2024-02-26T02:59:59;4.20;;;2.90;;
17361;SDS011;8798;51.938;4.348;2024-02-26T03:02:27;8.67;;;2.97;;
17361;SDS011;8798;51.938;4.348;2024-02-26T03:04:56;6.27;;;3.20;;
17361;SDS011;8798;51.938;4.348;2024-02-26T03:07:23;6.80;;;2.93;;
17361;SDS011;8798;51.938;4.348;2024-02-26T03:09:52;5.67;;;3.33;;
17361;SDS011;8798;51.938;4.348;2024-02-26T03:12:20;6.57;;;3.37;;
17361;SDS011;8798;51.938;4.348;2024-02-26T03:14:49;4.87;;;3.33;;
17361;SDS011;8798;51.938;4.348;2024-02-26T03:17:17;5.37;;;3.50;;
17361;SDS011;8798;51.938;4.348;2024-02-26T03:19:46;5.53;;;3.47;;
17361;SDS011;8798;51.938;4.348;2024-02-26T03:22:19;3.90;;;3.13;;
17361;SDS011;8798;51.938;4.348;2024-02-26T03:24:47;5.17;;;3.40;;
17361;SDS011;8798;51.938;4.348;2024-02-26T03:27:15;5.53;;;3.10;;
17361;SDS011;8798;51.938;4.348;2024-02-26T03:29:44;5.07;;;3.40;;
17361;SDS011;8798;51.938;4.348;2024-02-26T03:32:13;6.30;;;3.50;;
17361;SDS011;8798;51.938;4.348;2024-02-26T03:34:41;5.13;;;3.10;;
17361;SDS011;8798;51.938;4.348;2024-02-26T03:37:09;6.13;;;3.83;;
17361;SDS011;8798;51.938;4.348;2024-02-26T03:39:37;6.33;;;3.47;;
17361;SDS011;8798;51.938;4.348;2024-02-26T03:42:05;5.43;;;3.23;;
17361;SDS011;8798;51.938;4.348;2024-02-26T03:44:33;5.90;;;4.07;;
17361;SDS011;8798;51.938;4.348;2024-02-26T03:47:01;5.37;;;3.67;;
17361;SDS011;8798;51.938;4.348;2024-02-26T03:49:31;5.63;;;3.60;;
17361;SDS011;8798;51.938;4.348;2024-02-26T03:51:59;5.57;;;3.50;;
17361;SDS011;8798;51.938;4.348;2024-02-26T03:54:27;4.50;;;3.20;;
17361;SDS011;8798;51.938;4.348;2024-02-26T03:56:55;5.17;;;3.17;;
17361;SDS011;8798;51.938;4.348;2024-02-26T03:59:23;5.20;;;3.47;;
17361;SDS011;8798;51.938;4.348;2024-02-26T04:01:51;4.43;;;3.40;;
17361;SDS011;8798;51.938;4.348;2024-02-26T04:04:19;7.07;;;3.90;;
17361;SDS011;8798;51.938;4.348;2024-02-26T04:06:49;6.33;;;3.70;;
17361;SDS011;8798;51.938;4.348;2024-02-26T04:09:17;5.27;;;3.40;;
17361;SDS011;8798;51.938;4.348;2024-02-26T04:11:45;6.00;;;3.93;;
17361;SDS011;8798;51.938;4.348;2024-02-26T04:14:13;5.93;;;3.73;;
17361;SDS011;8798;51.938;4.348;2024-02-26T04:16:41;4.87;;;3.27;;
17361;SDS011;8798;51.938;4.348;2024-02-26T04:19:08;7.10;;;3.93;;
17361;SDS011;8798;51.938;4.348;2024-02-26T04:21:36;6.17;;;3.87;;
17361;SDS011;8798;51.938;4.348;2024-02-26T04:24:06;8.23;;;3.93;;
17361;SDS011;8798;51.938;4.348;2024-02-26T04:26:34;5.63;;;3.70;;
17361;SDS011;8798;51.938;4.348;2024-02-26T04:29:02;6.67;;;3.87;;
17361;SDS011;8798;51.938;4.348;2024-02-26T04:31:30;7.17;;;3.83;;
17361;SDS011;8798;51.938;4.348;2024-02-26T04:33:59;6.57;;;4.10;;
17361;SDS011;8798;51.938;4.348;2024-02-26T04:36:27;6.30;;;3.80;;
17361;SDS011;8798;51.938;4.348;2024-02-26T04:38:55;7.50;;;4.40;;
17361;SDS011;8798;51.938;4.348;2024-02-26T04:41:25;6.10;;;4.10;;
17361;SDS011;8798;51.938;4.348;2024-02-26T04:43:53;9.13;;;4.73;;
17361;SDS011;8798;51.938;4.348;2024-02-26T04:46:20;7.20;;;4.07;;
17361;SDS011;8798;51.938;4.348;2024-02-26T04:48:48;7.33;;;4.73;;
17361;SDS011;8798;51.938;4.348;2024-02-26T04:51:21;7.67;;;4.53;;
17361;SDS011;8798;51.938;4.348;2024-02-26T04:53:49;8.57;;;4.53;;
17361;SDS011;8798;51.938;4.348;2024-02-26T04:56:17;7.07;;;4.33;;
17361;SDS011;8798;51.938;4.348;2024-02-26T04:58:46;9.20;;;4.90;;
17361;SDS011;8798;51.938;4.348;2024-02-26T05:01:15;7.93;;;5.10;;
17361;SDS011;8798;51.938;4.348;2024-02-26T05:03:43;9.77;;;4.60;;
17361;SDS011;8798;51.938;4.348;2024-02-26T05:06:12;9.17;;;4.60;;
17361;SDS011;8798;51.938;4.348;2024-02-26T05:08:40;9.33;;;5.20;;
17361;SDS011;8798;51.938;4.348;2024-02-26T05:11:08;8.63;;;5.03;;
17361;SDS011;8798;51.938;4.348;2024-02-26T05:13:36;8.23;;;4.53;;
17361;SDS011;8798;51.938;4.348;2024-02-26T05:16:05;7.20;;;4.50;;
17361;SDS011;8798;51.938;4.348;2024-02-26T05:18:33;10.23;;;5.13;;
17361;SDS011;8798;51.938;4.348;2024-02-26T05:21:01;6.70;;;4.17;;
17361;SDS011;8798;51.938;4.348;2024-02-26T05:23:30;6.80;;;4.40;;
17361;SDS011;8798;51.938;4.348;2024-02-26T05:25:58;8.37;;;4.70;;
17361;SDS011;8798;51.938;4.348;2024-02-26T05:28:26;7.43;;;4.60;;
17361;SDS011;8798;51.938;4.348;2024-02-26T05:30:54;8.67;;;4.80;;
17361;SDS011;8798;51.938;4.348;2024-02-26T05:33:23;8.90;;;4.33;;
17361;SDS011;8798;51.938;4.348;2024-02-26T05:35:52;9.37;;;4.83;;
17361;SDS011;8798;51.938;4.348;2024-02-26T05:38:20;6.60;;;3.83;;
17361;SDS011;8798;51.938;4.348;2024-02-26T05:40:48;7.70;;;4.47;;
17361;SDS011;8798;51.938;4.348;2024-02-26T05:43:18;8.17;;;4.47;;
17361;SDS011;8798;51.938;4.348;2024-02-26T05:45:46;9.10;;;4.90;;
17361;SDS011;8798;51.938;4.348;2024-02-26T05:48:14;7.93;;;4.33;;
17361;SDS011;8798;51.938;4.348;2024-02-26T05:50:43;8.63;;;4.50;;
17361;SDS011;8798;51.938;4.348;2024-02-26T05:53:11;7.60;;;4.77;;
17361;SDS011;8798;51.938;4.348;2024-02-26T05:55:39;8.77;;;4.27;;
17361;SDS011;8798;51.938;4.348;2024-02-26T05:58:07;8.63;;;5.13;;
17361;SDS011;8798;51.938;4.348;2024-02-26T06:00:35;9.60;;;5.10;;
17361;SDS011;8798;51.938;4.348;2024-02-26T06:03:04;9.13;;;4.83;;
17361;SDS011;8798;51.938;4.348;2024-02-26T06:05:32;7.27;;;4.47;;
17361;SDS011;8798;51.938;4.348;2024-02-26T06:08:01;10.13;;;5.17;;
17361;SDS011;8798;51.938;4.348;2024-02-26T06:10:29;9.67;;;5.03;;
17361;SDS011;8798;51.938;4.348;2024-02-26T06:12:57;7.87;;;4.90;;
17361;SDS011;8798;51.938;4.348;2024-02-26T06:15:25;9.40;;;5.17;;
17361;SDS011;8798;51.938;4.348;2024-02-26T06:17:56;8.73;;;4.90;;
17361;SDS011;8798;51.938;4.348;2024-02-26T06:20:26;10.07;;;4.70;;
17361;SDS011;8798;51.938;4.348;2024-02-26T06:22:54;8.07;;;4.53;;
17361;SDS011;8798;51.938;4.348;2024-02-26T06:25:23;10.13;;;5.10;;
17361;SDS011;8798;51.938;4.348;2024-02-26T06:27:52;9.17;;;5.63;;
17361;SDS011;8798;51.938;4.348;2024-02-26T06:30:21;12.07;;;5.13;;
17361;SDS011;8798;51.938;4.348;2024-02-26T06:32:49;8.73;;;5.13;;
17361;SDS011;8798;51.938;4.348;2024-02-26T06:35:17;12.50;;;5.57;;
17361;SDS011;8798;51.938;4.348;2024-02-26T06:37:45;9.37;;;4.90;;
17361;SDS011;8798;51.938;4.348;2024-02-26T06:40:13;12.07;;;6.00;;
17361;SDS011;8798;51.938;4.348;2024-02-26T06:42:42;12.33;;;6.40;;
17361;SDS011;8798;51.938;4.348;2024-02-26T06:45:14;15.37;;;6.27;;
17361;SDS011;8798;51.938;4.348;2024-02-26T06:47:43;11.77;;;5.87;;
17361;SDS011;8798;51.938;4.348;2024-02-26T06:50:11;13.80;;;6.30;;
17361;SDS011;8798;51.938;4.348;2024-02-26T06:52:40;13.57;;;6.40;;
17361;SDS011;8798;51.938;4.348;2024-02-26T06:55:08;16.13;;;7.23;;
17361;SDS011;8798;51.938;4.348;2024-02-26T06:57:36;14.47;;;7.00;;
17361;SDS011;8798;51.938;4.348;2024-02-26T07:00:06;14.73;;;7.40;;
17361;SDS011;8798;51.938;4.348;2024-02-26T07:02:35;12.50;;;6.30;;
17361;SDS011;8798;51.938;4.348;2024-02-26T07:05:05;14.77;;;7.30;;
17361;SDS011;8798;51.938;4.348;2024-02-26T07:07:34;14.53;;;6.97;;
17361;SDS011;8798;51.938;4.348;2024-02-26T07:10:02;13.10;;;6.90;;
17361;SDS011;8798;51.938;4.348;2024-02-26T07:12:32;15.20;;;6.73;;
17361;SDS011;8798;51.938;4.348;2024-02-26T07:15:00;13.40;;;7.10;;
17361;SDS011;8798;51.938;4.348;2024-02-26T07:17:30;15.90;;;7.73;;
17361;SDS011;8798;51.938;4.348;2024-02-26T07:20:00;14.83;;;7.73;;
17361;SDS011;8798;51.938;4.348;2024-02-26T07:22:34;15.60;;;8.17;;
17361;SDS011;8798;51.938;4.348;2024-02-26T07:25:02;14.20;;;7.40;;
17361;SDS011;8798;51.938;4.348;2024-02-26T07:27:33;15.47;;;8.17;;
17361;SDS011;8798;51.938;4.348;2024-02-26T07:30:02;15.30;;;8.10;;
17361;SDS011;8798;51.938;4.348;2024-02-26T07:32:32;15.40;;;7.47;;
17361;SDS011;8798;51.938;4.348;2024-02-26T07:35:00;15.93;;;7.83;;
17361;SDS011;8798;51.938;4.348;2024-02-26T07:37:29;14.17;;;7.20;;
17361;SDS011;8798;51.938;4.348;2024-02-26T07:39:57;15.67;;;7.83;;
17361;SDS011;8798;51.938;4.348;2024-02-26T07:42:25;14.07;;;7.50;;
17361;SDS011;8798;51.938;4.348;2024-02-26T07:44:53;15.90;;;8.20;;
17361;SDS011;8798;51.938;4.348;2024-02-26T07:47:21;15.73;;;7.97;;
17361;SDS011;8798;51.938;4.348;2024-02-26T07:49:50;17.33;;;8.23;;
17361;SDS011;8798;51.938;4.348;2024-02-26T07:52:21;12.53;;;7.43;;
17361;SDS011;8798;51.938;4.348;2024-02-26T07:54:52;12.53;;;7.13;;
17361;SDS011;8798;51.938;4.348;2024-02-26T07:57:20;13.03;;;6.90;;
17361;SDS011;8798;51.938;4.348;2024-02-26T07:59:48;13.17;;;7.57;;
17361;SDS011;8798;51.938;4.348;2024-02-26T08:02:16;15.50;;;7.53;;
17361;SDS011;8798;51.938;4.348;2024-02-26T08:04:44;12.33;;;6.73;;
17361;SDS011;8798;51.938;4.348;2024-02-26T08:07:14;12.83;;;7.17;;
17361;SDS011;8798;51.938;4.348;2024-02-26T08:09:43;11.07;;;6.37;;
17361;SDS011;8798;51.938;4.348;2024-02-26T08:12:12;11.63;;;6.90;;
17361;SDS011;8798;51.938;4.348;2024-02-26T08:14:40;12.53;;;6.10;;
17361;SDS011;8798;51.938;4.348;2024-02-26T08:17:09;10.03;;;5.90;;
17361;SDS011;8798;51.938;4.348;2024-02-26T08:19:37;11.03;;;6.17;;
17361;SDS011;8798;51.938;4.348;2024-02-26T08:22:05;10.20;;;6.30;;
17361;SDS011;8798;51.938;4.348;2024-02-26T08:24:34;10.20;;;5.93;;
17361;SDS011;8798;51.938;4.348;2024-02-26T08:27:02;8.77;;;5.33;;
17361;SDS011;8798;51.938;4.348;2024-02-26T08:29:31;7.57;;;4.87;;
17361;SDS011;8798;51.938;4.348;2024-02-26T08:31:59;8.30;;;5.30;;
17361;SDS011;8798;51.938;4.348;2024-02-26T08:34:27;10.37;;;4.93;;
17361;SDS011;8798;51.938;4.348;2024-02-26T08:36:55;8.97;;;5.50;;
17361;SDS011;8798;51.938;4.348;2024-02-26T08:39:23;9.73;;;4.70;;
17361;SDS011;8798;51.938;4.348;2024-02-26T08:41:53;10.87;;;4.30;;
17361;SDS011;8798;51.938;4.348;2024-02-26T08:44:21;8.47;;;4.53;;
17361;SDS011;8798;51.938;4.348;2024-02-26T08:46:49;6.80;;;4.10;;
17361;SDS011;8798;51.938;4.348;2024-02-26T08:49:17;6.20;;;3.63;;
17361;SDS011;8798;51.938;4.348;2024-02-26T08:51:45;9.53;;;4.20;;
17361;SDS011;8798;51.938;4.348;2024-02-26T08:54:13;6.23;;;3.93;;
17361;SDS011;8798;51.938;4.348;2024-02-26T08:56:41;5.47;;;3.77;;
17361;SDS011;8798;51.938;4.348;2024-02-26T08:59:11;5.13;;;3.47;;
17361;SDS011;8798;51.938;4.348;2024-02-26T09:01:38;7.90;;;4.00;;
17361;SDS011;8798;51.938;4.348;2024-02-26T09:04:06;4.77;;;3.40;;
17361;SDS011;8798;51.938;4.348;2024-02-26T09:06:34;4.67;;;3.17;;
17361;SDS011;8798;51.938;4.348;2024-02-26T09:09:02;5.50;;;3.50;;
17361;SDS011;8798;51.938;4.348;2024-02-26T09:11:30;6.33;;;4.07;;
17361;SDS011;8798;51.938;4.348;2024-02-26T09:13:58;6.50;;;3.53;;
17361;SDS011;8798;51.938;4.348;2024-02-26T09:16:28;5.13;;;3.30;;
17361;SDS011;8798;51.938;4.348;2024-02-26T09:18:56;4.70;;;3.33;;
17361;SDS011;8798;51.938;4.348;2024-02-26T09:21:24;5.30;;;3.63;;
17361;SDS011;8798;51.938;4.348;2024-02-26T09:23:52;7.33;;;3.33;;
17361;SDS011;8798;51.938;4.348;2024-02-26T09:26:21;5.13;;;3.03;;
17361;SDS011;8798;51.938;4.348;2024-02-26T09:28:49;4.07;;;2.73;;
17361;SDS011;8798;51.938;4.348;2024-02-26T09:31:17;4.93;;;2.70;;
17361;SDS011;8798;51.938;4.348;2024-02-26T09:33:47;5.13;;;3.17;;
17361;SDS011;8798;51.938;4.348;2024-02-26T09:36:15;5.67;;;3.30;;
17361;SDS011;8798;51.938;4.348;2024-02-26T09:38:43;5.00;;;2.87;;
17361;SDS011;8798;51.938;4.348;2024-02-26T09:41:25;5.50;;;3.00;;
17361;SDS011;8798;51.938;4.348;2024-02-26T09:43:56;4.47;;;2.60;;
17361;SDS011;8798;51.938;4.348;2024-02-26T09:46:26;4.60;;;3.00;;
17361;SDS011;8798;51.938;4.348;2024-02-26T09:48:55;5.00;;;2.80;;
17361;SDS011;8798;51.938;4.348;2024-02-26T09:51:27;4.37;;;2.60;;
17361;SDS011;8798;51.938;4.348;2024-02-26T09:53:55;4.57;;;3.27;;
17361;SDS011;8798;51.938;4.348;2024-02-26T09:56:26;4.77;;;2.77;;
17361;SDS011;8798;51.938;4.348;2024-02-26T09:58:55;4.97;;;2.77;;
17361;SDS011;8798;51.938;4.348;2024-02-26T10:01:24;4.70;;;2.60;;
17361;SDS011;8798;51.938;4.348;2024-02-26T10:03:56;4.60;;;2.67;;
17361;SDS011;8798;51.938;4.348;2024-02-26T10:06:25;4.47;;;2.80;;
17361;SDS011;8798;51.938;4.348;2024-02-26T10:08:54;5.07;;;2.90;;
17361;SDS011;8798;51.938;4.348;2024-02-26T10:11:25;4.70;;;2.83;;
17361;SDS011;8798;51.938;4.348;2024-02-26T10:13:54;6.87;;;3.40;;
17361;SDS011;8798;51.938;4.348;2024-02-26T10:16:22;6.00;;;2.73;;
17361;SDS011;8798;51.938;4.348;2024-02-26T10:18:52;4.83;;;2.97;;
17361;SDS011;8798;51.938;4.348;2024-02-26T10:21:26;4.97;;;3.00;;
17361;SDS011;8798;51.938;4.348;2024-02-26T10:23:55;5.87;;;3.17;;
17361;SDS011;8798;51.938;4.348;2024-02-26T10:26:23;4.77;;;2.80;;
17361;SDS011;8798;51.938;4.348;2024-02-26T10:28:51;5.43;;;3.10;;
17361;SDS011;8798;51.938;4.348;2024-02-26T10:31:21;7.37;;;3.03;;
17361;SDS011;8798;51.938;4.348;2024-02-26T10:33:49;4.03;;;2.83;;
17361;SDS011;8798;51.938;4.348;2024-02-26T10:36:18;4.23;;;2.97;;
17361;SDS011;8798;51.938;4.348;2024-02-26T10:38:49;5.43;;;3.00;;
17361;SDS011;8798;51.938;4.348;2024-02-26T10:41:20;4.80;;;2.73;;
17361;SDS011;8798;51.938;4.348;2024-02-26T10:43:50;4.03;;;2.70;;
17361;SDS011;8798;51.938;4.348;2024-02-26T10:46:19;5.80;;;3.20;;
17361;SDS011;8798;51.938;4.348;2024-02-26T10:48:49;4.93;;;2.60;;
17361;SDS011;8798;51.938;4.348;2024-02-26T10:51:25;4.30;;;2.80;;
17361;SDS011;8798;51.938;4.348;2024-02-26T10:53:56;5.53;;;3.20;;
17361;SDS011;8798;51.938;4.348;2024-02-26T10:56:28;5.80;;;2.80;;
17361;SDS011;8798;51.938;4.348;2024-02-26T10:58:57;5.13;;;2.87;;
17361;SDS011;8798;51.938;4.348;2024-02-26T11:01:26;6.00;;;2.93;;
17361;SDS011;8798;51.938;4.348;2024-02-26T11:03:55;4.50;;;2.80;;
17361;SDS011;8798;51.938;4.348;2024-02-26T11:06:25;5.00;;;3.10;;
17361;SDS011;8798;51.938;4.348;2024-02-26T11:08:54;4.77;;;2.70;;
17361;SDS011;8798;51.938;4.348;2024-02-26T11:11:24;5.23;;;2.90;;
17361;SDS011;8798;51.938;4.348;2024-02-26T11:13:54;3.83;;;2.50;;
17361;SDS011;8798;51.938;4.348;2024-02-26T11:16:22;5.67;;;2.60;;
17361;SDS011;8798;51.938;4.348;2024-02-26T11:18:51;3.77;;;2.53;;
17361;SDS011;8798;51.938;4.348;2024-02-26T11:21:22;3.80;;;2.40;;
17361;SDS011;8798;51.938;4.348;2024-02-26T11:23:56;3.67;;;2.27;;
17361;SDS011;8798;51.938;4.348;2024-02-26T11:26:27;3.97;;;2.60;;
17361;SDS011;8798;51.938;4.348;2024-02-26T11:28:57;3.80;;;2.67;;
17361;SDS011;8798;51.938;4.348;2024-02-26T11:31:26;4.83;;;2.50;;
17361;SDS011;8798;51.938;4.348;2024-02-26T11:33:55;4.13;;;2.53;;
17361;SDS011;8798;51.938;4.348;2024-02-26T11:36:24;5.13;;;2.87;;
17361;SDS011;8798;51.938;4.348;2024-02-26T11:38:54;4.03;;;2.40;;
17361;SDS011;8798;51.938;4.348;2024-02-26T11:41:23;3.40;;;2.50;;
17361;SDS011;8798;51.938;4.348;2024-02-26T11:43:57;8.00;;;2.93;;
17361;SDS011;8798;51.938;4.348;2024-02-26T11:46:30;7.17;;;3.10;;
17361;SDS011;8798;51.938;4.348;2024-02-26T11:49:00;4.13;;;2.57;;
17361;SDS011;8798;51.938;4.348;2024-02-26T11:51:32;4.20;;;2.67;;
17361;SDS011;8798;51.938;4.348;2024-02-26T11:54:01;4.57;;;2.80;;
17361;SDS011;8798;51.938;4.348;2024-02-26T11:56:30;4.00;;;2.70;;
17361;SDS011;8798;51.938;4.348;2024-02-26T11:59:03;3.97;;;2.40;;
17361;SDS011;8798;51.938;4.348;2024-02-26T12:01:40;5.27;;;3.00;;
17361;SDS011;8798;51.938;4.348;2024-02-26T12:04:13;4.60;;;2.70;;
17361;SDS011;8798;51.938;4.348;2024-02-26T12:06:44;4.70;;;2.53;;
17361;SDS011;8798;51.938;4.348;2024-02-26T12:12:04;3.60;;;2.27;;
17361;SDS011;8798;51.938;4.348;2024-02-26T12:14:36;4.47;;;2.53;;
17361;SDS011;8798;51.938;4.348;2024-02-26T12:17:06;6.53;;;3.07;;
17361;SDS011;8798;51.938;4.348;2024-02-26T12:19:35;5.83;;;2.67;;
17361;SDS011;8798;51.938;4.348;2024-02-26T12:22:09;4.57;;;2.63;;
17361;SDS011;8798;51.938;4.348;2024-02-26T12:24:41;4.27;;;2.80;;
17361;SDS011;8798;51.938;4.348;2024-02-26T12:27:09;6.13;;;2.97;;
17361;SDS011;8798;51.938;4.348;2024-02-26T12:29:39;4.43;;;2.03;;
17361;SDS011;8798;51.938;4.348;2024-02-26T12:32:07;4.50;;;2.60;;
17361;SDS011;8798;51.938;4.348;2024-02-26T12:34:35;5.80;;;2.50;;
17361;SDS011;8798;51.938;4.348;2024-02-26T12:37:03;4.73;;;2.33;;
17361;SDS011;8798;51.938;4.348;2024-02-26T12:39:31;5.83;;;2.93;;
17361;SDS011;8798;51.938;4.348;2024-02-26T12:41:59;5.13;;;2.23;;
17361;SDS011;8798;51.938;4.348;2024-02-26T12:44:28;5.10;;;2.87;;
17361;SDS011;8798;51.938;4.348;2024-02-26T12:47:01;4.30;;;2.40;;
17361;SDS011;8798;51.938;4.348;2024-02-26T12:49:30;3.70;;;2.10;;
17361;SDS011;8798;51.938;4.348;2024-02-26T12:52:01;5.83;;;2.57;;
17361;SDS011;8798;51.938;4.348;2024-02-26T12:54:30;4.53;;;2.37;;
17361;SDS011;8798;51.938;4.348;2024-02-26T12:57:00;6.37;;;2.47;;
17361;SDS011;8798;51.938;4.348;2024-02-26T12:59:29;6.97;;;2.43;;
17361;SDS011;8798;51.938;4.348;2024-02-26T13:01:58;5.00;;;2.37;;
17361;SDS011;8798;51.938;4.348;2024-02-26T13:04:29;5.73;;;2.60;;
17361;SDS011;8798;51.938;4.348;2024-02-26T13:06:58;5.00;;;2.20;;
17361;SDS011;8798;51.938;4.348;2024-02-26T13:09:31;3.77;;;2.20;;
17361;SDS011;8798;51.938;4.348;2024-02-26T13:12:03;4.40;;;2.30;;
17361;SDS011;8798;51.938;4.348;2024-02-26T13:14:32;4.73;;;2.57;;
17361;SDS011;8798;51.938;4.348;2024-02-26T13:17:03;5.70;;;2.70;;
17361;SDS011;8798;51.938;4.348;2024-02-26T13:19:32;6.13;;;2.50;;
17361;SDS011;8798;51.938;4.348;2024-02-26T13:22:04;4.43;;;2.23;;
17361;SDS011;8798;51.938;4.348;2024-02-26T13:24:33;4.50;;;2.30;;
17361;SDS011;8798;51.938;4.348;2024-02-26T13:27:01;4.60;;;2.27;;
17361;SDS011;8798;51.938;4.348;2024-02-26T13:29:33;5.30;;;2.63;;
17361;SDS011;8798;51.938;4.348;2024-02-26T13:32:01;3.27;;;2.30;;
17361;SDS011;8798;51.938;4.348;2024-02-26T13:34:29;7.13;;;2.70;;
17361;SDS011;8798;51.938;4.348;2024-02-26T13:36:58;5.47;;;2.37;;
17361;SDS011;8798;51.938;4.348;2024-02-26T13:39:27;4.67;;;2.70;;
17361;SDS011;8798;51.938;4.348;2024-02-26T13:41:56;5.00;;;2.37;;
17361;SDS011;8798;51.938;4.348;2024-02-26T13:44:25;6.47;;;2.50;;
17361;SDS011;8798;51.938;4.348;2024-02-26T13:46:53;4.23;;;2.30;;
17361;SDS011;8798;51.938;4.348;2024-02-26T13:49:20;6.00;;;2.60;;
17361;SDS011;8798;51.938;4.348;2024-02-26T13:51:48;4.47;;;2.07;;
17361;SDS011;8798;51.938;4.348;2024-02-26T13:54:18;5.57;;;2.13;;
17361;SDS011;8798;51.938;4.348;2024-02-26T13:56:46;2.93;;;1.80;;
17361;SDS011;8798;51.938;4.348;2024-02-26T13:59:14;4.50;;;1.93;;
17361;SDS011;8798;51.938;4.348;2024-02-26T14:01:42;3.77;;;2.23;;
17361;SDS011;8798;51.938;4.348;2024-02-26T14:04:11;2.60;;;1.80;;
17361;SDS011;8798;51.938;4.348;2024-02-26T14:06:39;3.60;;;1.83;;
17361;SDS011;8798;51.938;4.348;2024-02-26T14:09:07;4.57;;;2.43;;
17361;SDS011;8798;51.938;4.348;2024-02-26T14:11:37;5.47;;;1.77;;
17361;SDS011;8798;51.938;4.348;2024-02-26T14:14:06;2.43;;;1.90;;
17361;SDS011;8798;51.938;4.348;2024-02-26T14:16:34;5.33;;;2.17;;
17361;SDS011;8798;51.938;4.348;2024-02-26T14:19:02;4.10;;;2.27;;
17361;SDS011;8798;51.938;4.348;2024-02-26T14:21:30;5.93;;;1.87;;
17361;SDS011;8798;51.938;4.348;2024-02-26T14:23:58;5.53;;;1.70;;
17361;SDS011;8798;51.938;4.348;2024-02-26T14:26:26;2.17;;;1.60;;
17361;SDS011;8798;51.938;4.348;2024-02-26T14:28:56;2.83;;;1.80;;
17361;SDS011;8798;51.938;4.348;2024-02-26T14:31:24;4.40;;;2.00;;
17361;SDS011;8798;51.938;4.348;2024-02-26T14:33:52;3.00;;;1.70;;
17361;SDS011;8798;51.938;4.348;2024-02-26T14:36:21;2.67;;;1.80;;
17361;SDS011;8798;51.938;4.348;2024-02-26T14:38:49;2.70;;;1.60;;
17361;SDS011;8798;51.938;4.348;2024-02-26T14:41:17;4.80;;;2.13;;
17361;SDS011;8798;51.938;4.348;2024-02-26T14:43:45;3.33;;;1.50;;
17361;SDS011;8798;51.938;4.348;2024-02-26T14:46:14;2.20;;;1.40;;
17361;SDS011;8798;51.938;4.348;2024-02-26T14:48:42;5.07;;;1.80;;
17361;SDS011;8798;51.938;4.348;2024-02-26T14:51:10;2.57;;;1.70;;
17361;SDS011;8798;51.938;4.348;2024-02-26T14:53:38;4.03;;;1.80;;
17361;SDS011;8798;51.938;4.348;2024-02-26T14:56:06;3.87;;;1.83;;
17361;SDS011;8798;51.938;4.348;2024-02-26T14:58:35;3.33;;;1.90;;
17361;SDS011;8798;51.938;4.348;2024-02-26T15:01:05;3.03;;;1.93;;
17361;SDS011;8798;51.938;4.348;2024-02-26T15:03:35;3.20;;;2.20;;
17361;SDS011;8798;51.938;4.348;2024-02-26T15:06:03;8.03;;;2.27;;
17361;SDS011;8798;51.938;4.348;2024-02-26T15:08:31;4.87;;;2.40;;
17361;SDS011;8798;51.938;4.348;2024-02-26T15:11:00;5.00;;;2.40;;
17361;SDS011;8798;51.938;4.348;2024-02-26T15:13:29;4.83;;;2.53;;